Farmington, MO

3:50 PM CDT on July 29, 2016 (GMT -0500)
Farmington Regional | | Change Station

Elev 945 ft 37.76 °N, 90.43 °W | Updated 54 minutes ago

Partly Cloudy
Partly Cloudy
85 °F
Feels Like 89 °F
N
4
Wind Variable Wind from Variable

Today
High -- | Low -- °F
--% Chance of Precip.
Yesterday
High -- | Low -- °F
Precip. -- in
Pressure 29.99 in
Visibility 8.0 miles
Clouds Few 3700 ft
Heat Index 89 °F
Dew Point 70 °F
Humidity 61%
Rainfall 0.00 in
Snow Depth Not available.
6:03 AM 8:12 PM
Waning Crescent, 19% visible
METAR KFAM 291956Z AUTO VRB03KT 8SM FEW037 29/21 A2994 RMK AO2 SLP156 T02940211
Pressure 29.99 in
Visibility 8.0 miles
Clouds Few 3700 ft
Heat Index 89 °F
Dew Point 70 °F
Humidity 61%
Rainfall 0.00 in
Snow Depth Not available.
6:03 AM 8:12 PM
Waning Crescent, 19% visible
METAR KFAM 291956Z AUTO VRB03KT 8SM FEW037 29/21 A2994 RMK AO2 SLP156 T02940211

10-Day Weather Forecast

Almanac

Astronomy

Jul. 29, 2016 Rise Set
Actual Time
Civil Twilight
Nautical Twilight
Astronomical Twilight
Moon
Length of Visible Light
Length of Day
Tomorrow will be .
, % of the Moon is Illuminated

Today's Extremes

State Highs State Lows

Community

WunderPhotos

Upload Photos

1,928,411 photos uploaded!

WunderBlog® & News

Nearby

Air Quality

  Air Quality AQ Index Pollutant
Not available.

Snow Depth

Station Depth Elevation

Earthquake Activity

City Distance Mag. Time & Date
Minimum magnitude displayed is 2.5.

Coastal Water Temperatures

Place Temperature

Stations

Nearby Weather Stations

Station Location Temp. Windchill Dew Point Humidity Wind Precip. Elev Updated Type
                   

Watches & Warnings

There are currently no watches in effect.